Terminal Aerodrome Forecast
Issued by NWS Charleston, WV

Current Version | Previous Version | Text Only | Print | Product List | Glossary Off
Versions: 1 2 3 4 5 6 7 8 9 10 11 12 13 14 15 16 17 18 19 20 21 22 23 24 25 26 27 28 29

000
FTUS41 KRLX 212320
TAFHTS
TAF
KHTS 212320Z 2200/2224 19005KT P6SM BKN040
     FM220100 19005KT P6SM SHRA VCTS BKN040CB
      TEMPO 2201/2203 24011G18KT 6SM -TSRA BKN030CB
     FM220400 VRB03KT P6SM BKN025
     FM221300 29004KT P6SM SCT035
     FM221800 28004KT P6SM SCT150=

USA.gov is the U.S. government's official web portal to all federal, state and local government web resources and services.